»·PEaware :: N824LB KSMO-KLAS

N824LB :: KSMO-KLAS

FLIGHT INFORMATION

Flight Status: Arrived
Operator: Privately registered:
United States
More flights under this callsign
Pilot: Mark 1 Aviation (4414)
Aircraft: CESSNA 172 SKYHAWK
(C172)
More flights by this aircraft type
Origin: KSMO Santa Monica Mun
United States
Destination: KLAS McCarran Intl
United States
More flights between these airports :: More routes between these airports
Route: +SMO V165 LANGE PMD DAG CRESO3
File this flight plan on PilotEdge
Remarks:
Altitude:
(Current/Filed)
11,000ft
Speed:
(Current/Filed)
115kts
Departed: 14-Jan-15 08:47 PM
Arrived: 14-Jan-15 10:39 PM
Distance/Time
Traveled:
204nm/1:52
Distance/Time
To Go:
Arrived

Flight Plot

Page will automatically refresh every two minutes.

Flight plan parsing failed; only flown route is shown


Map Options




Map Legend


Flown Route
Filed Route
Departure Airport
Arrival Airport
Navaid (VOR, NDB)
Fix

Horizontal Profiles

Position Reports

Time Latitude Longitude Heading Altitude Ground
Speed
14-Jan-15 20:18 34.013460 -118.452614 140 180ft 0kts
14-Jan-15 20:19 34.013460 -118.452614 140 180ft 0kts
14-Jan-15 20:20 34.013460 -118.452614 140 180ft 0kts
14-Jan-15 20:21 34.013460 -118.452614 140 180ft 0kts
14-Jan-15 20:22 34.013460 -118.452614 140 180ft 0kts
14-Jan-15 20:23 34.013460 -118.452614 140 180ft 0kts
14-Jan-15 20:24 34.013460 -118.452614 140 180ft 0kts
14-Jan-15 20:25 34.013460 -118.452614 140 180ft 0kts
14-Jan-15 20:26 34.013460 -118.452614 140 180ft 0kts
14-Jan-15 20:27 34.013460 -118.452614 140 180ft 0kts
14-Jan-15 20:28 34.013460 -118.452614 140 180ft 0kts
14-Jan-15 20:29 34.013460 -118.452614 140 180ft 0kts
14-Jan-15 20:30 34.013460 -118.452614 140 180ft 0kts
14-Jan-15 20:31 34.013460 -118.452614 140 180ft 0kts
14-Jan-15 20:32 34.013460 -118.452614 140 180ft 0kts
14-Jan-15 20:33 34.013460 -118.452614 140 180ft 0kts
14-Jan-15 20:34 34.013460 -118.452614 140 180ft 0kts
14-Jan-15 20:35 34.013460 -118.452614 140 180ft 0kts
14-Jan-15 20:36 34.013460 -118.452614 140 180ft 0kts
14-Jan-15 20:37 34.013428 -118.452700 325 180ft 1kts
14-Jan-15 20:38 34.014064 -118.452048 27 180ft 4kts
14-Jan-15 20:39 34.016580 -118.449345 43 180ft 15kts
14-Jan-15 20:40 34.019886 -118.445587 356 180ft 8kts
14-Jan-15 20:41 34.019915 -118.445590 350 180ft 0kts
14-Jan-15 20:42 34.019975 -118.445603 350 180ft 3kts
14-Jan-15 20:43 34.013179 -118.453650 221 498ft 71kts
14-Jan-15 20:44 33.998173 -118.468426 224 1537ft 77kts
14-Jan-15 20:45 33.993201 -118.485748 344 2640ft 68kts
14-Jan-15 20:46 34.017600 -118.486785 353 3357ft 100kts
14-Jan-15 20:47 34.046975 -118.488109 353 4070ft 110kts
14-Jan-15 20:48 34.077853 -118.487369 24 4757ft 117kts
14-Jan-15 20:49 34.105767 -118.467182 31 5450ft 118kts
14-Jan-15 20:50 34.133214 -118.445981 30 6142ft 117kts
14-Jan-15 20:51 34.160319 -118.425297 31 6833ft 116kts
14-Jan-15 20:52 34.187181 -118.404814 31 7529ft 114kts
14-Jan-15 20:53 34.213768 -118.384531 31 8230ft 112kts
14-Jan-15 20:54 34.239579 -118.364820 31 8928ft 108kts
14-Jan-15 20:55 34.264580 -118.345711 31 9624ft 105kts
14-Jan-15 20:56 34.288581 -118.327353 31 10317ft 98kts
14-Jan-15 20:57 34.310204 -118.310788 31 10978ft 86kts
14-Jan-15 20:58 34.337016 -118.290254 31 10959ft 131kts
14-Jan-15 20:59 34.368205 -118.266340 31 10973ft 134kts
14-Jan-15 21:00 34.399449 -118.242373 31 10972ft 132kts
14-Jan-15 21:01 34.430053 -118.218868 31 10972ft 128kts
14-Jan-15 21:01 34.455163 -118.199583 31 10953ft 124kts
14-Jan-15 21:02 34.483729 -118.177636 31 10982ft 121kts
14-Jan-15 21:04 34.511767 -118.156065 31 10982ft 118kts
14-Jan-15 21:05 34.543231 -118.131839 31 10982ft 113kts
14-Jan-15 21:06 34.564710 -118.115290 31 10979ft 108kts
14-Jan-15 21:07 34.591327 -118.094768 31 10989ft 130kts
14-Jan-15 21:08 34.622202 -118.070870 31 10980ft 129kts
14-Jan-15 21:09 34.638021 -118.035200 78 10981ft 124kts
14-Jan-15 21:10 34.647170 -117.994792 77 10981ft 124kts
14-Jan-15 21:11 34.656428 -117.954269 77 10981ft 124kts
14-Jan-15 21:12 34.665666 -117.913813 77 10982ft 124kts
14-Jan-15 21:13 34.675015 -117.873380 78 10980ft 125kts
14-Jan-15 21:14 34.684382 -117.832469 78 10980ft 125kts
14-Jan-15 21:15 34.693614 -117.791901 78 10980ft 125kts
14-Jan-15 21:16 34.702862 -117.751177 78 10980ft 125kts
14-Jan-15 21:17 34.712080 -117.710541 78 10980ft 125kts
14-Jan-15 21:18 34.721307 -117.669779 78 10980ft 125kts
14-Jan-15 21:19 34.730525 -117.628980 78 10980ft 125kts
14-Jan-15 21:20 34.739749 -117.588077 78 10981ft 125kts
14-Jan-15 21:21 34.748953 -117.547194 78 10981ft 125kts
14-Jan-15 21:22 34.758099 -117.506509 78 10981ft 126kts
14-Jan-15 21:23 34.767307 -117.465504 78 10981ft 126kts
14-Jan-15 21:24 34.776435 -117.424749 78 10981ft 126kts
14-Jan-15 21:25 34.785628 -117.383592 78 10981ft 126kts
14-Jan-15 21:26 34.794752 -117.342691 78 10981ft 126kts
14-Jan-15 21:27 34.803925 -117.301523 78 10981ft 126kts
14-Jan-15 21:28 34.813085 -117.260347 78 10981ft 126kts
14-Jan-15 21:29 34.822171 -117.219434 78 10981ft 126kts
14-Jan-15 21:30 34.831238 -117.178532 78 10981ft 126kts
14-Jan-15 21:31 34.840367 -117.137279 78 10982ft 126kts
14-Jan-15 21:32 34.849473 -117.096056 78 10982ft 126kts
14-Jan-15 21:33 34.858617 -117.054596 78 10982ft 126kts
14-Jan-15 21:34 34.867693 -117.013368 78 10982ft 126kts
14-Jan-15 21:35 34.876723 -116.972274 78 10982ft 126kts
14-Jan-15 21:36 34.885803 -116.930885 78 10982ft 126kts
14-Jan-15 21:37 34.894900 -116.889570 78 10981ft 126kts
14-Jan-15 21:38 34.903997 -116.848474 78 10980ft 126kts
14-Jan-15 21:39 34.913024 -116.807160 78 10981ft 126kts
14-Jan-15 21:40 34.921950 -116.766188 78 10981ft 126kts
14-Jan-15 21:41 34.930928 -116.724897 78 10981ft 127kts
14-Jan-15 21:42 34.939942 -116.683373 78 10991ft 126kts
14-Jan-15 21:43 34.948907 -116.641990 78 10991ft 127kts
14-Jan-15 21:44 34.957907 -116.600381 78 10991ft 127kts
14-Jan-15 21:45 34.970491 -116.560195 64 10991ft 128kts
14-Jan-15 21:46 34.987442 -116.522050 63 10991ft 129kts
14-Jan-15 21:47 35.004400 -116.483908 63 10991ft 129kts
14-Jan-15 21:48 35.021422 -116.445582 63 10991ft 129kts
14-Jan-15 21:49 35.038381 -116.407356 63 10992ft 129kts
14-Jan-15 21:50 35.055422 -116.368904 63 10992ft 129kts
14-Jan-15 21:51 35.069298 -116.337560 63 10992ft 129kts
14-Jan-15 21:52 35.077224 -116.319642 63 10992ft 129kts
14-Jan-15 21:53 35.094166 -116.281314 63 10992ft 129kts
14-Jan-15 21:54 35.111079 -116.243006 63 10992ft 129kts
14-Jan-15 21:55 35.127917 -116.204827 63 10992ft 129kts
14-Jan-15 21:56 35.144863 -116.166361 63 10992ft 129kts
14-Jan-15 21:57 35.161736 -116.128015 63 10992ft 129kts
14-Jan-15 21:58 35.178719 -116.089376 63 10992ft 129kts
14-Jan-15 21:59 35.195630 -116.050857 63 10993ft 129kts
14-Jan-15 22:00 35.207222 -116.024428 63 10993ft 129kts
14-Jan-15 22:01 35.224047 -115.986031 63 10993ft 129kts
14-Jan-15 22:02 35.240896 -115.947536 63 10993ft 129kts
14-Jan-15 22:03 35.257884 -115.908676 63 10993ft 129kts
14-Jan-15 22:04 35.274766 -115.870365 64 10991ft 129kts
14-Jan-15 22:05 35.291591 -115.831880 64 10991ft 129kts
14-Jan-15 22:05 35.305634 -115.799661 64 10992ft 129kts
14-Jan-15 22:07 35.331136 -115.759777 48 10992ft 130kts
14-Jan-15 22:07 35.351475 -115.732804 48 10992ft 130kts
14-Jan-15 22:08 35.375851 -115.700307 48 10992ft 130kts
14-Jan-15 22:10 35.405241 -115.661049 48 10450ft 137kts
14-Jan-15 22:11 35.426183 -115.633132 47 10019ft 128kts
14-Jan-15 22:12 35.449925 -115.601359 48 10022ft 126kts
14-Jan-15 22:13 35.473749 -115.569451 48 10009ft 126kts
14-Jan-15 22:14 35.497335 -115.537837 48 10023ft 126kts
14-Jan-15 22:15 35.519951 -115.507528 48 10120ft 120kts
14-Jan-15 22:16 35.543128 -115.476404 48 10068ft 127kts
14-Jan-15 22:17 35.567995 -115.442953 48 9296ft 136kts
14-Jan-15 22:18 35.595740 -115.414579 23 8483ft 130kts
14-Jan-15 22:19 35.628168 -115.395963 23 7685ft 129kts
14-Jan-15 22:20 35.660153 -115.377313 23 6879ft 128kts
14-Jan-15 22:21 35.691149 -115.358112 23 7024ft 126kts
14-Jan-15 22:22 35.722467 -115.339800 23 7032ft 125kts
14-Jan-15 22:23 35.753945 -115.321371 23 7032ft 125kts
14-Jan-15 22:24 35.785370 -115.302972 23 7034ft 127kts
14-Jan-15 22:25 35.818973 -115.293577 3 6486ft 117kts
14-Jan-15 22:26 35.848803 -115.289057 3 6090ft 100kts
14-Jan-15 22:27 35.878716 -115.282625 21 6082ft 116kts
14-Jan-15 22:28 35.907987 -115.265951 22 6081ft 115kts
14-Jan-15 22:29 35.937805 -115.248887 22 5599ft 112kts
14-Jan-15 22:30 35.965456 -115.233176 21 4934ft 109kts
14-Jan-15 22:31 35.993681 -115.217054 21 4244ft 113kts
14-Jan-15 22:32 36.021315 -115.201260 21 3562ft 108kts
14-Jan-15 22:33 36.048738 -115.185584 21 2895ft 109kts
14-Jan-15 22:34 36.073494 -115.171300 19 2243ft 69kts
14-Jan-15 22:35 36.086039 -115.164260 26 2144ft 34kts
14-Jan-15 22:36 36.089464 -115.163718 294 2144ft 0kts

Navigation Log

Ident Type
Flight plan parsing failed, navigation log unavailable